sensor_id;sensor_type;location;lat;lon;timestamp;P1;durP1;ratioP1;P2;durP2;ratioP2
14776;SDS011;7480;43.124;25.686;2023-02-26T00:01:24;14.13;;;7.00;;
14776;SDS011;7480;43.124;25.686;2023-02-26T00:03:54;14.63;;;6.93;;
14776;SDS011;7480;43.124;25.686;2023-02-26T00:06:23;13.13;;;6.80;;
14776;SDS011;7480;43.124;25.686;2023-02-26T00:08:51;13.63;;;6.90;;
14776;SDS011;7480;43.124;25.686;2023-02-26T00:11:18;13.47;;;6.13;;
14776;SDS011;7480;43.124;25.686;2023-02-26T00:13:45;10.23;;;7.20;;
14776;SDS011;7480;43.124;25.686;2023-02-26T00:16:32;17.07;;;7.00;;
14776;SDS011;7480;43.124;25.686;2023-02-26T00:19:01;14.00;;;6.53;;
14776;SDS011;7480;43.124;25.686;2023-02-26T00:21:30;16.37;;;7.17;;
14776;SDS011;7480;43.124;25.686;2023-02-26T00:23:57;15.33;;;7.00;;
14776;SDS011;7480;43.124;25.686;2023-02-26T00:26:25;11.00;;;6.47;;
14776;SDS011;7480;43.124;25.686;2023-02-26T00:28:54;15.60;;;7.03;;
14776;SDS011;7480;43.124;25.686;2023-02-26T00:31:21;15.13;;;6.50;;
14776;SDS011;7480;43.124;25.686;2023-02-26T00:33:52;10.67;;;6.73;;
14776;SDS011;7480;43.124;25.686;2023-02-26T00:36:21;12.40;;;5.80;;
14776;SDS011;7480;43.124;25.686;2023-02-26T00:38:56;10.97;;;5.27;;
14776;SDS011;7480;43.124;25.686;2023-02-26T00:41:25;15.50;;;6.73;;
14776;SDS011;7480;43.124;25.686;2023-02-26T00:43:53;13.60;;;6.30;;
14776;SDS011;7480;43.124;25.686;2023-02-26T00:46:41;12.57;;;6.70;;
14776;SDS011;7480;43.124;25.686;2023-02-26T00:56:47;11.20;;;6.13;;
14776;SDS011;7480;43.124;25.686;2023-02-26T00:59:15;12.77;;;6.23;;
14776;SDS011;7480;43.124;25.686;2023-02-26T01:01:42;13.57;;;6.90;;
14776;SDS011;7480;43.124;25.686;2023-02-26T01:04:10;14.63;;;6.37;;
14776;SDS011;7480;43.124;25.686;2023-02-26T01:06:42;14.40;;;6.73;;
14776;SDS011;7480;43.124;25.686;2023-02-26T01:09:24;16.80;;;6.27;;
14776;SDS011;7480;43.124;25.686;2023-02-26T01:12:00;12.93;;;5.87;;
14776;SDS011;7480;43.124;25.686;2023-02-26T01:14:30;13.57;;;7.03;;
14776;SDS011;7480;43.124;25.686;2023-02-26T01:19:44;11.40;;;5.93;;
14776;SDS011;7480;43.124;25.686;2023-02-26T01:22:22;17.23;;;6.33;;
14776;SDS011;7480;43.124;25.686;2023-02-26T01:24:58;17.60;;;6.27;;
14776;SDS011;7480;43.124;25.686;2023-02-26T01:27:30;15.10;;;6.53;;
14776;SDS011;7480;43.124;25.686;2023-02-26T01:29:57;13.50;;;6.73;;
14776;SDS011;7480;43.124;25.686;2023-02-26T01:32:25;14.00;;;5.37;;
14776;SDS011;7480;43.124;25.686;2023-02-26T01:35:03;11.67;;;6.30;;
14776;SDS011;7480;43.124;25.686;2023-02-26T01:42:51;15.27;;;6.43;;
14776;SDS011;7480;43.124;25.686;2023-02-26T01:45:22;12.83;;;5.87;;
14776;SDS011;7480;43.124;25.686;2023-02-26T01:48:05;15.57;;;6.32;;
14776;SDS011;7480;43.124;25.686;2023-02-26T01:50:33;11.53;;;5.97;;
14776;SDS011;7480;43.124;25.686;2023-02-26T01:53:21;14.63;;;6.10;;
14776;SDS011;7480;43.124;25.686;2023-02-26T01:55:56;13.27;;;5.43;;
14776;SDS011;7480;43.124;25.686;2023-02-26T01:58:33;14.90;;;6.48;;
14776;SDS011;7480;43.124;25.686;2023-02-26T02:01:01;12.23;;;5.70;;
14776;SDS011;7480;43.124;25.686;2023-02-26T02:03:29;13.27;;;5.80;;
14776;SDS011;7480;43.124;25.686;2023-02-26T02:05:59;14.90;;;6.33;;
14776;SDS011;7480;43.124;25.686;2023-02-26T02:08:29;16.00;;;6.20;;
14776;SDS011;7480;43.124;25.686;2023-02-26T02:10:58;14.07;;;5.80;;
14776;SDS011;7480;43.124;25.686;2023-02-26T02:16:19;11.50;;;5.20;;
14776;SDS011;7480;43.124;25.686;2023-02-26T02:22:45;12.30;;;5.93;;
14776;SDS011;7480;43.124;25.686;2023-02-26T02:26:06;12.63;;;6.03;;
14776;SDS011;7480;43.124;25.686;2023-02-26T02:31:18;14.63;;;5.90;;
14776;SDS011;7480;43.124;25.686;2023-02-26T02:39:35;8.40;;;5.47;;
14776;SDS011;7480;43.124;25.686;2023-02-26T02:42:15;19.97;;;5.57;;
14776;SDS011;7480;43.124;25.686;2023-02-26T02:44:45;12.70;;;5.40;;
14776;SDS011;7480;43.124;25.686;2023-02-26T02:47:16;20.33;;;6.70;;
14776;SDS011;7480;43.124;25.686;2023-02-26T02:55:15;13.87;;;6.07;;
14776;SDS011;7480;43.124;25.686;2023-02-26T02:57:47;12.13;;;5.77;;
14776;SDS011;7480;43.124;25.686;2023-02-26T03:00:17;13.73;;;5.53;;
14776;SDS011;7480;43.124;25.686;2023-02-26T03:05:16;13.73;;;5.33;;
14776;SDS011;7480;43.124;25.686;2023-02-26T03:08:03;12.37;;;6.00;;
14776;SDS011;7480;43.124;25.686;2023-02-26T03:10:31;14.67;;;5.90;;
14776;SDS011;7480;43.124;25.686;2023-02-26T03:12:58;12.53;;;6.50;;
14776;SDS011;7480;43.124;25.686;2023-02-26T03:15:37;11.43;;;6.20;;
14776;SDS011;7480;43.124;25.686;2023-02-26T03:18:24;19.57;;;6.10;;
14776;SDS011;7480;43.124;25.686;2023-02-26T03:21:03;12.60;;;5.07;;
14776;SDS011;7480;43.124;25.686;2023-02-26T03:23:44;13.03;;;6.00;;
14776;SDS011;7480;43.124;25.686;2023-02-26T03:26:18;13.47;;;5.40;;
14776;SDS011;7480;43.124;25.686;2023-02-26T03:28:54;18.50;;;6.20;;
14776;SDS011;7480;43.124;25.686;2023-02-26T03:31:40;12.73;;;5.43;;
14776;SDS011;7480;43.124;25.686;2023-02-26T03:34:22;13.70;;;5.80;;
14776;SDS011;7480;43.124;25.686;2023-02-26T03:36:56;15.27;;;6.43;;
14776;SDS011;7480;43.124;25.686;2023-02-26T03:39:39;17.67;;;5.87;;
14776;SDS011;7480;43.124;25.686;2023-02-26T03:42:14;15.37;;;5.90;;
14776;SDS011;7480;43.124;25.686;2023-02-26T03:44:54;12.90;;;5.73;;
14776;SDS011;7480;43.124;25.686;2023-02-26T03:47:23;12.27;;;5.70;;
14776;SDS011;7480;43.124;25.686;2023-02-26T03:52:24;13.87;;;6.27;;
14776;SDS011;7480;43.124;25.686;2023-02-26T03:55:04;14.00;;;5.90;;
14776;SDS011;7480;43.124;25.686;2023-02-26T03:57:34;12.37;;;5.83;;
14776;SDS011;7480;43.124;25.686;2023-02-26T04:00:00;15.00;;;6.10;;
14776;SDS011;7480;43.124;25.686;2023-02-26T04:02:30;11.97;;;5.93;;
14776;SDS011;7480;43.124;25.686;2023-02-26T04:05:04;17.77;;;5.73;;
14776;SDS011;7480;43.124;25.686;2023-02-26T04:07:33;10.53;;;5.73;;
14776;SDS011;7480;43.124;25.686;2023-02-26T04:10:00;15.13;;;5.77;;
14776;SDS011;7480;43.124;25.686;2023-02-26T04:12:27;8.43;;;5.13;;
14776;SDS011;7480;43.124;25.686;2023-02-26T04:14:54;11.33;;;6.20;;
14776;SDS011;7480;43.124;25.686;2023-02-26T04:17:22;11.13;;;5.87;;
14776;SDS011;7480;43.124;25.686;2023-02-26T04:19:48;11.57;;;6.40;;
14776;SDS011;7480;43.124;25.686;2023-02-26T04:22:15;15.87;;;6.17;;
14776;SDS011;7480;43.124;25.686;2023-02-26T04:24:42;14.17;;;6.50;;
14776;SDS011;7480;43.124;25.686;2023-02-26T04:27:08;13.90;;;6.43;;
14776;SDS011;7480;43.124;25.686;2023-02-26T04:29:35;10.77;;;5.67;;
14776;SDS011;7480;43.124;25.686;2023-02-26T04:32:02;14.13;;;4.93;;
14776;SDS011;7480;43.124;25.686;2023-02-26T04:34:29;14.67;;;5.73;;
14776;SDS011;7480;43.124;25.686;2023-02-26T04:36:56;12.53;;;5.47;;
14776;SDS011;7480;43.124;25.686;2023-02-26T04:39:23;17.93;;;5.97;;
14776;SDS011;7480;43.124;25.686;2023-02-26T04:41:49;16.40;;;5.47;;
14776;SDS011;7480;43.124;25.686;2023-02-26T04:44:16;12.93;;;5.67;;
14776;SDS011;7480;43.124;25.686;2023-02-26T04:46:43;13.27;;;5.43;;
14776;SDS011;7480;43.124;25.686;2023-02-26T04:49:09;15.93;;;5.90;;
14776;SDS011;7480;43.124;25.686;2023-02-26T04:51:36;18.57;;;6.80;;
14776;SDS011;7480;43.124;25.686;2023-02-26T04:54:03;14.57;;;4.93;;
14776;SDS011;7480;43.124;25.686;2023-02-26T04:56:29;12.80;;;5.40;;
14776;SDS011;7480;43.124;25.686;2023-02-26T04:58:57;15.70;;;5.50;;
14776;SDS011;7480;43.124;25.686;2023-02-26T05:01:24;17.27;;;6.03;;
14776;SDS011;7480;43.124;25.686;2023-02-26T05:03:51;14.13;;;5.97;;
14776;SDS011;7480;43.124;25.686;2023-02-26T05:06:20;13.88;;;5.47;;
14776;SDS011;7480;43.124;25.686;2023-02-26T05:08:47;16.53;;;5.97;;
14776;SDS011;7480;43.124;25.686;2023-02-26T05:11:14;16.53;;;6.37;;
14776;SDS011;7480;43.124;25.686;2023-02-26T05:13:41;12.13;;;5.50;;
14776;SDS011;7480;43.124;25.686;2023-02-26T05:16:07;15.40;;;5.87;;
14776;SDS011;7480;43.124;25.686;2023-02-26T05:18:34;14.07;;;6.53;;
14776;SDS011;7480;43.124;25.686;2023-02-26T05:21:01;20.23;;;5.57;;
14776;SDS011;7480;43.124;25.686;2023-02-26T05:23:27;12.83;;;5.33;;
14776;SDS011;7480;43.124;25.686;2023-02-26T05:25:55;13.80;;;6.03;;
14776;SDS011;7480;43.124;25.686;2023-02-26T05:28:23;18.90;;;6.97;;
14776;SDS011;7480;43.124;25.686;2023-02-26T05:30:50;13.57;;;5.93;;
14776;SDS011;7480;43.124;25.686;2023-02-26T05:33:17;20.30;;;6.00;;
14776;SDS011;7480;43.124;25.686;2023-02-26T05:35:44;17.53;;;6.13;;
14776;SDS011;7480;43.124;25.686;2023-02-26T05:38:11;11.60;;;5.40;;
14776;SDS011;7480;43.124;25.686;2023-02-26T05:40:38;14.50;;;6.20;;
14776;SDS011;7480;43.124;25.686;2023-02-26T05:43:04;12.00;;;5.60;;
14776;SDS011;7480;43.124;25.686;2023-02-26T05:45:31;16.53;;;5.33;;
14776;SDS011;7480;43.124;25.686;2023-02-26T05:47:58;16.57;;;6.13;;
14776;SDS011;7480;43.124;25.686;2023-02-26T05:50:25;15.67;;;5.50;;
14776;SDS011;7480;43.124;25.686;2023-02-26T05:52:52;17.20;;;5.50;;
14776;SDS011;7480;43.124;25.686;2023-02-26T05:55:19;11.80;;;5.20;;
14776;SDS011;7480;43.124;25.686;2023-02-26T05:57:45;16.30;;;5.87;;
14776;SDS011;7480;43.124;25.686;2023-02-26T06:00:12;13.63;;;5.73;;
14776;SDS011;7480;43.124;25.686;2023-02-26T06:02:39;15.80;;;5.83;;
14776;SDS011;7480;43.124;25.686;2023-02-26T06:05:06;13.53;;;5.17;;
14776;SDS011;7480;43.124;25.686;2023-02-26T06:07:34;15.27;;;5.80;;
14776;SDS011;7480;43.124;25.686;2023-02-26T06:10:01;12.83;;;6.03;;
14776;SDS011;7480;43.124;25.686;2023-02-26T06:12:27;17.50;;;6.87;;
14776;SDS011;7480;43.124;25.686;2023-02-26T06:14:54;13.53;;;6.50;;
14776;SDS011;7480;43.124;25.686;2023-02-26T06:17:21;11.83;;;6.40;;
14776;SDS011;7480;43.124;25.686;2023-02-26T06:19:47;12.47;;;6.90;;
14776;SDS011;7480;43.124;25.686;2023-02-26T06:22:14;13.50;;;7.13;;
14776;SDS011;7480;43.124;25.686;2023-02-26T06:24:40;14.03;;;8.00;;
14776;SDS011;7480;43.124;25.686;2023-02-26T06:27:07;11.03;;;7.53;;
14776;SDS011;7480;43.124;25.686;2023-02-26T06:29:34;20.30;;;8.53;;
14776;SDS011;7480;43.124;25.686;2023-02-26T06:32:03;14.93;;;7.83;;
14776;SDS011;7480;43.124;25.686;2023-02-26T06:34:30;16.77;;;7.43;;
14776;SDS011;7480;43.124;25.686;2023-02-26T06:37:14;16.88;;;7.91;;
14776;SDS011;7480;43.124;25.686;2023-02-26T06:39:41;15.50;;;7.37;;
14776;SDS011;7480;43.124;25.686;2023-02-26T06:42:08;14.00;;;7.53;;
14776;SDS011;7480;43.124;25.686;2023-02-26T06:44:34;13.20;;;7.17;;
14776;SDS011;7480;43.124;25.686;2023-02-26T06:47:01;14.68;;;5.80;;
14776;SDS011;7480;43.124;25.686;2023-02-26T06:49:28;14.30;;;6.13;;
14776;SDS011;7480;43.124;25.686;2023-02-26T06:51:55;16.93;;;6.33;;
14776;SDS011;7480;43.124;25.686;2023-02-26T06:54:22;12.93;;;6.13;;
14776;SDS011;7480;43.124;25.686;2023-02-26T06:56:48;11.60;;;6.30;;
14776;SDS011;7480;43.124;25.686;2023-02-26T06:59:15;10.73;;;5.63;;
14776;SDS011;7480;43.124;25.686;2023-02-26T07:01:42;12.17;;;5.23;;
14776;SDS011;7480;43.124;25.686;2023-02-26T07:04:09;17.07;;;6.40;;
14776;SDS011;7480;43.124;25.686;2023-02-26T07:06:35;16.03;;;5.80;;
14776;SDS011;7480;43.124;25.686;2023-02-26T07:09:02;18.57;;;5.53;;
14776;SDS011;7480;43.124;25.686;2023-02-26T07:11:28;17.17;;;5.47;;
14776;SDS011;7480;43.124;25.686;2023-02-26T07:13:55;16.53;;;5.80;;
14776;SDS011;7480;43.124;25.686;2023-02-26T07:16:22;14.23;;;5.00;;
14776;SDS011;7480;43.124;25.686;2023-02-26T07:18:49;15.53;;;6.53;;
14776;SDS011;7480;43.124;25.686;2023-02-26T07:21:21;15.22;;;5.14;;
14776;SDS011;7480;43.124;25.686;2023-02-26T07:23:48;12.27;;;5.97;;
14776;SDS011;7480;43.124;25.686;2023-02-26T07:26:15;13.70;;;5.47;;
14776;SDS011;7480;43.124;25.686;2023-02-26T07:28:42;11.40;;;4.73;;
14776;SDS011;7480;43.124;25.686;2023-02-26T07:31:09;14.83;;;5.83;;
14776;SDS011;7480;43.124;25.686;2023-02-26T07:33:36;18.30;;;4.83;;
14776;SDS011;7480;43.124;25.686;2023-02-26T07:36:05;19.33;;;6.23;;
14776;SDS011;7480;43.124;25.686;2023-02-26T07:38:31;16.47;;;6.30;;
14776;SDS011;7480;43.124;25.686;2023-02-26T07:40:58;17.43;;;4.90;;
14776;SDS011;7480;43.124;25.686;2023-02-26T07:43:25;16.00;;;5.53;;
14776;SDS011;7480;43.124;25.686;2023-02-26T07:45:52;18.07;;;5.50;;
14776;SDS011;7480;43.124;25.686;2023-02-26T07:48:19;14.33;;;4.60;;
14776;SDS011;7480;43.124;25.686;2023-02-26T07:50:46;15.53;;;5.47;;
14776;SDS011;7480;43.124;25.686;2023-02-26T07:53:12;19.00;;;5.67;;
14776;SDS011;7480;43.124;25.686;2023-02-26T07:55:39;17.93;;;5.60;;
14776;SDS011;7480;43.124;25.686;2023-02-26T07:58:06;16.30;;;5.07;;
14776;SDS011;7480;43.124;25.686;2023-02-26T08:00:32;12.07;;;4.80;;
14776;SDS011;7480;43.124;25.686;2023-02-26T08:02:59;16.47;;;5.57;;
14776;SDS011;7480;43.124;25.686;2023-02-26T08:05:26;14.63;;;5.43;;
14776;SDS011;7480;43.124;25.686;2023-02-26T08:07:55;15.13;;;6.03;;
14776;SDS011;7480;43.124;25.686;2023-02-26T08:10:22;17.77;;;5.77;;
14776;SDS011;7480;43.124;25.686;2023-02-26T08:12:48;14.73;;;5.07;;
14776;SDS011;7480;43.124;25.686;2023-02-26T08:15:15;14.13;;;5.67;;
14776;SDS011;7480;43.124;25.686;2023-02-26T08:17:42;12.63;;;4.43;;
14776;SDS011;7480;43.124;25.686;2023-02-26T08:20:08;11.30;;;4.77;;
14776;SDS011;7480;43.124;25.686;2023-02-26T08:22:37;17.27;;;5.87;;
14776;SDS011;7480;43.124;25.686;2023-02-26T08:25:03;18.90;;;5.70;;
14776;SDS011;7480;43.124;25.686;2023-02-26T08:27:30;14.40;;;6.20;;
14776;SDS011;7480;43.124;25.686;2023-02-26T08:29:57;15.13;;;5.97;;
14776;SDS011;7480;43.124;25.686;2023-02-26T08:32:24;18.13;;;6.27;;
14776;SDS011;7480;43.124;25.686;2023-02-26T08:34:52;17.67;;;5.87;;
14776;SDS011;7480;43.124;25.686;2023-02-26T08:37:19;14.20;;;5.40;;
14776;SDS011;7480;43.124;25.686;2023-02-26T08:39:48;14.60;;;6.33;;
14776;SDS011;7480;43.124;25.686;2023-02-26T08:42:15;17.67;;;5.40;;
14776;SDS011;7480;43.124;25.686;2023-02-26T08:44:42;20.80;;;6.13;;
14776;SDS011;7480;43.124;25.686;2023-02-26T08:47:08;16.73;;;5.53;;
14776;SDS011;7480;43.124;25.686;2023-02-26T08:49:35;17.80;;;5.33;;
14776;SDS011;7480;43.124;25.686;2023-02-26T08:52:02;17.67;;;5.73;;
14776;SDS011;7480;43.124;25.686;2023-02-26T08:54:29;19.37;;;5.70;;
14776;SDS011;7480;43.124;25.686;2023-02-26T08:56:55;13.00;;;5.57;;
14776;SDS011;7480;43.124;25.686;2023-02-26T08:59:23;13.67;;;6.00;;
14776;SDS011;7480;43.124;25.686;2023-02-26T09:01:50;23.53;;;7.57;;
14776;SDS011;7480;43.124;25.686;2023-02-26T09:04:17;19.57;;;6.33;;
14776;SDS011;7480;43.124;25.686;2023-02-26T09:06:44;13.27;;;5.60;;
14776;SDS011;7480;43.124;25.686;2023-02-26T09:09:10;15.80;;;5.90;;
14776;SDS011;7480;43.124;25.686;2023-02-26T09:11:37;13.13;;;4.90;;
14776;SDS011;7480;43.124;25.686;2023-02-26T09:14:04;13.87;;;5.63;;
14776;SDS011;7480;43.124;25.686;2023-02-26T09:16:31;14.23;;;5.67;;
14776;SDS011;7480;43.124;25.686;2023-02-26T09:19:00;14.90;;;5.20;;
14776;SDS011;7480;43.124;25.686;2023-02-26T09:21:27;15.37;;;5.30;;
14776;SDS011;7480;43.124;25.686;2023-02-26T09:23:54;16.67;;;5.37;;
14776;SDS011;7480;43.124;25.686;2023-02-26T09:26:20;14.43;;;5.63;;
14776;SDS011;7480;43.124;25.686;2023-02-26T09:28:47;15.83;;;5.40;;
14776;SDS011;7480;43.124;25.686;2023-02-26T09:31:14;13.70;;;5.17;;
14776;SDS011;7480;43.124;25.686;2023-02-26T09:33:40;15.37;;;5.03;;
14776;SDS011;7480;43.124;25.686;2023-02-26T09:36:07;13.00;;;6.17;;
14776;SDS011;7480;43.124;25.686;2023-02-26T09:38:34;12.83;;;4.73;;
14776;SDS011;7480;43.124;25.686;2023-02-26T09:41:02;20.65;;;7.30;;
14776;SDS011;7480;43.124;25.686;2023-02-26T09:49:05;14.63;;;5.00;;
14776;SDS011;7480;43.124;25.686;2023-02-26T09:51:33;9.73;;;4.23;;
14776;SDS011;7480;43.124;25.686;2023-02-26T09:54:02;14.43;;;4.87;;
14776;SDS011;7480;43.124;25.686;2023-02-26T09:56:38;10.17;;;4.43;;
14776;SDS011;7480;43.124;25.686;2023-02-26T09:59:07;11.70;;;4.57;;
14776;SDS011;7480;43.124;25.686;2023-02-26T10:09:28;13.17;;;4.60;;
14776;SDS011;7480;43.124;25.686;2023-02-26T10:20:00;12.10;;;4.70;;
14776;SDS011;7480;43.124;25.686;2023-02-26T10:22:35;13.30;;;4.43;;
14776;SDS011;7480;43.124;25.686;2023-02-26T10:25:09;12.97;;;4.57;;
14776;SDS011;7480;43.124;25.686;2023-02-26T10:30:41;16.07;;;5.00;;
14776;SDS011;7480;43.124;25.686;2023-02-26T10:33:12;8.20;;;4.13;;
14776;SDS011;7480;43.124;25.686;2023-02-26T10:35:52;9.77;;;4.20;;
14776;SDS011;7480;43.124;25.686;2023-02-26T10:38:22;14.03;;;4.80;;
14776;SDS011;7480;43.124;25.686;2023-02-26T10:41:11;11.30;;;4.87;;
14776;SDS011;7480;43.124;25.686;2023-02-26T10:43:41;15.67;;;4.53;;
14776;SDS011;7480;43.124;25.686;2023-02-26T10:46:43;11.23;;;4.93;;
14776;SDS011;7480;43.124;25.686;2023-02-26T10:52:21;14.07;;;4.47;;
14776;SDS011;7480;43.124;25.686;2023-02-26T10:57:31;11.90;;;4.70;;
14776;SDS011;7480;43.124;25.686;2023-02-26T11:00:03;13.57;;;4.60;;
14776;SDS011;7480;43.124;25.686;2023-02-26T11:02:32;12.63;;;5.07;;
14776;SDS011;7480;43.124;25.686;2023-02-26T11:05:20;12.37;;;4.23;;
14776;SDS011;7480;43.124;25.686;2023-02-26T11:10:47;13.60;;;4.30;;
14776;SDS011;7480;43.124;25.686;2023-02-26T11:13:17;13.53;;;5.17;;
14776;SDS011;7480;43.124;25.686;2023-02-26T11:15:45;11.70;;;4.77;;
14776;SDS011;7480;43.124;25.686;2023-02-26T11:18:14;10.13;;;4.13;;
14776;SDS011;7480;43.124;25.686;2023-02-26T11:20:44;11.83;;;4.93;;
14776;SDS011;7480;43.124;25.686;2023-02-26T11:23:13;8.70;;;4.10;;
14776;SDS011;7480;43.124;25.686;2023-02-26T11:25:42;14.73;;;5.37;;
14776;SDS011;7480;43.124;25.686;2023-02-26T11:28:29;8.23;;;3.87;;
14776;SDS011;7480;43.124;25.686;2023-02-26T11:30:59;17.37;;;4.90;;
14776;SDS011;7480;43.124;25.686;2023-02-26T11:33:32;13.73;;;4.63;;
14776;SDS011;7480;43.124;25.686;2023-02-26T11:36:02;10.23;;;4.47;;
14776;SDS011;7480;43.124;25.686;2023-02-26T11:38:34;11.90;;;4.57;;
14776;SDS011;7480;43.124;25.686;2023-02-26T11:41:01;8.67;;;4.00;;
14776;SDS011;7480;43.124;25.686;2023-02-26T11:43:44;15.20;;;4.63;;
14776;SDS011;7480;43.124;25.686;2023-02-26T11:46:22;10.27;;;5.07;;
14776;SDS011;7480;43.124;25.686;2023-02-26T11:48:49;13.68;;;4.78;;
14776;SDS011;7480;43.124;25.686;2023-02-26T11:51:19;14.50;;;4.93;;
14776;SDS011;7480;43.124;25.686;2023-02-26T11:53:52;11.13;;;4.07;;
14776;SDS011;7480;43.124;25.686;2023-02-26T11:59:07;11.57;;;4.80;;
14776;SDS011;7480;43.124;25.686;2023-02-26T12:01:42;14.53;;;5.00;;
14776;SDS011;7480;43.124;25.686;2023-02-26T12:04:09;11.40;;;4.70;;
14776;SDS011;7480;43.124;25.686;2023-02-26T12:06:38;13.87;;;4.50;;
14776;SDS011;7480;43.124;25.686;2023-02-26T12:09:08;16.13;;;5.10;;
14776;SDS011;7480;43.124;25.686;2023-02-26T12:12:01;13.87;;;5.40;;
14776;SDS011;7480;43.124;25.686;2023-02-26T12:14:50;13.03;;;4.60;;
14776;SDS011;7480;43.124;25.686;2023-02-26T12:17:23;12.53;;;5.00;;
14776;SDS011;7480;43.124;25.686;2023-02-26T12:36:30;14.80;;;4.70;;
14776;SDS011;7480;43.124;25.686;2023-02-26T12:45:25;10.93;;;4.20;;
14776;SDS011;7480;43.124;25.686;2023-02-26T12:48:18;17.07;;;4.17;;
14776;SDS011;7480;43.124;25.686;2023-02-26T12:51:10;10.50;;;4.13;;
14776;SDS011;7480;43.124;25.686;2023-02-26T13:05:17;15.23;;;4.93;;
14776;SDS011;7480;43.124;25.686;2023-02-26T13:07:56;13.93;;;4.50;;
14776;SDS011;7480;43.124;25.686;2023-02-26T13:21:40;13.17;;;4.97;;
14776;SDS011;7480;43.124;25.686;2023-02-26T13:26:51;12.23;;;4.53;;
14776;SDS011;7480;43.124;25.686;2023-02-26T13:29:22;11.20;;;4.77;;
14776;SDS011;7480;43.124;25.686;2023-02-26T13:31:58;13.13;;;4.30;;
14776;SDS011;7480;43.124;25.686;2023-02-26T13:34:47;12.83;;;4.37;;
14776;SDS011;7480;43.124;25.686;2023-02-26T13:37:32;15.30;;;5.63;;
14776;SDS011;7480;43.124;25.686;2023-02-26T13:42:41;15.33;;;4.87;;
14776;SDS011;7480;43.124;25.686;2023-02-26T13:55:50;13.97;;;5.33;;
14776;SDS011;7480;43.124;25.686;2023-02-26T14:06:23;14.50;;;4.63;;
14776;SDS011;7480;43.124;25.686;2023-02-26T14:09:02;10.93;;;4.50;;
14776;SDS011;7480;43.124;25.686;2023-02-26T14:14:05;10.10;;;4.57;;
14776;SDS011;7480;43.124;25.686;2023-02-26T14:16:50;16.47;;;4.83;;
14776;SDS011;7480;43.124;25.686;2023-02-26T14:19:22;16.53;;;5.07;;
14776;SDS011;7480;43.124;25.686;2023-02-26T14:21:53;13.03;;;5.00;;
14776;SDS011;7480;43.124;25.686;2023-02-26T14:24:28;15.80;;;5.00;;
14776;SDS011;7480;43.124;25.686;2023-02-26T14:29:59;10.43;;;5.17;;
14776;SDS011;7480;43.124;25.686;2023-02-26T14:32:33;12.27;;;5.20;;
14776;SDS011;7480;43.124;25.686;2023-02-26T14:35:05;15.80;;;5.90;;
14776;SDS011;7480;43.124;25.686;2023-02-26T14:37:37;12.90;;;5.00;;
14776;SDS011;7480;43.124;25.686;2023-02-26T14:48:15;13.93;;;4.80;;
14776;SDS011;7480;43.124;25.686;2023-02-26T14:50:52;17.30;;;4.87;;
14776;SDS011;7480;43.124;25.686;2023-02-26T15:07:23;12.87;;;5.13;;
14776;SDS011;7480;43.124;25.686;2023-02-26T15:10:03;12.83;;;5.50;;
14776;SDS011;7480;43.124;25.686;2023-02-26T15:15:11;14.90;;;5.13;;
14776;SDS011;7480;43.124;25.686;2023-02-26T15:17:47;9.67;;;4.77;;
14776;SDS011;7480;43.124;25.686;2023-02-26T15:20:59;14.23;;;5.37;;
14776;SDS011;7480;43.124;25.686;2023-02-26T15:26:20;15.70;;;4.80;;
14776;SDS011;7480;43.124;25.686;2023-02-26T15:28:49;13.50;;;5.27;;
14776;SDS011;7480;43.124;25.686;2023-02-26T15:31:18;13.03;;;4.93;;
14776;SDS011;7480;43.124;25.686;2023-02-26T15:33:54;15.25;;;4.82;;
14776;SDS011;7480;43.124;25.686;2023-02-26T15:36:21;15.57;;;4.67;;
14776;SDS011;7480;43.124;25.686;2023-02-26T15:38:54;13.20;;;4.77;;
14776;SDS011;7480;43.124;25.686;2023-02-26T15:41:24;13.67;;;4.37;;
14776;SDS011;7480;43.124;25.686;2023-02-26T15:43:54;14.33;;;4.10;;
14776;SDS011;7480;43.124;25.686;2023-02-26T15:46:27;15.07;;;5.70;;
14776;SDS011;7480;43.124;25.686;2023-02-26T15:49:00;9.13;;;4.73;;
14776;SDS011;7480;43.124;25.686;2023-02-26T15:51:28;10.07;;;4.30;;
14776;SDS011;7480;43.124;25.686;2023-02-26T15:53:55;13.43;;;5.17;;
14776;SDS011;7480;43.124;25.686;2023-02-26T15:56:29;15.77;;;4.77;;
14776;SDS011;7480;43.124;25.686;2023-02-26T15:59:10;13.40;;;4.93;;
14776;SDS011;7480;43.124;25.686;2023-02-26T16:01:39;13.97;;;5.23;;
14776;SDS011;7480;43.124;25.686;2023-02-26T16:04:10;14.27;;;5.87;;
14776;SDS011;7480;43.124;25.686;2023-02-26T16:06:39;13.80;;;5.97;;
14776;SDS011;7480;43.124;25.686;2023-02-26T16:09:13;10.60;;;5.47;;
14776;SDS011;7480;43.124;25.686;2023-02-26T16:11:42;9.37;;;4.57;;
14776;SDS011;7480;43.124;25.686;2023-02-26T16:14:12;14.93;;;6.77;;
14776;SDS011;7480;43.124;25.686;2023-02-26T16:16:44;12.07;;;5.07;;
14776;SDS011;7480;43.124;25.686;2023-02-26T16:19:14;17.73;;;5.30;;
14776;SDS011;7480;43.124;25.686;2023-02-26T16:21:42;12.10;;;4.40;;
14776;SDS011;7480;43.124;25.686;2023-02-26T16:24:12;10.60;;;4.83;;
14776;SDS011;7480;43.124;25.686;2023-02-26T16:26:42;12.00;;;5.03;;
14776;SDS011;7480;43.124;25.686;2023-02-26T16:29:26;17.03;;;5.00;;
14776;SDS011;7480;43.124;25.686;2023-02-26T16:31:56;12.60;;;5.30;;
14776;SDS011;7480;43.124;25.686;2023-02-26T16:36:54;10.97;;;4.70;;
14776;SDS011;7480;43.124;25.686;2023-02-26T16:39:22;13.07;;;5.07;;
14776;SDS011;7480;43.124;25.686;2023-02-26T16:42:01;12.00;;;4.50;;
14776;SDS011;7480;43.124;25.686;2023-02-26T16:47:03;12.30;;;5.30;;
14776;SDS011;7480;43.124;25.686;2023-02-26T16:49:34;18.47;;;5.40;;
14776;SDS011;7480;43.124;25.686;2023-02-26T16:52:01;11.55;;;4.40;;
14776;SDS011;7480;43.124;25.686;2023-02-26T16:54:35;14.30;;;5.70;;
14776;SDS011;7480;43.124;25.686;2023-02-26T16:59:52;20.30;;;5.00;;
14776;SDS011;7480;43.124;25.686;2023-02-26T17:02:28;12.53;;;4.27;;
14776;SDS011;7480;43.124;25.686;2023-02-26T17:04:59;11.13;;;4.47;;
14776;SDS011;7480;43.124;25.686;2023-02-26T17:07:31;12.70;;;4.75;;
14776;SDS011;7480;43.124;25.686;2023-02-26T17:10:06;14.20;;;4.90;;
14776;SDS011;7480;43.124;25.686;2023-02-26T17:15:19;12.43;;;3.80;;
14776;SDS011;7480;43.124;25.686;2023-02-26T17:17:56;10.00;;;4.20;;
14776;SDS011;7480;43.124;25.686;2023-02-26T17:20:24;9.40;;;4.07;;
14776;SDS011;7480;43.124;25.686;2023-02-26T17:22:51;10.57;;;4.63;;
14776;SDS011;7480;43.124;25.686;2023-02-26T17:25:18;10.40;;;5.50;;
14776;SDS011;7480;43.124;25.686;2023-02-26T17:27:46;9.90;;;3.95;;
14776;SDS011;7480;43.124;25.686;2023-02-26T17:30:15;11.70;;;3.95;;
14776;SDS011;7480;43.124;25.686;2023-02-26T17:32:44;13.87;;;4.67;;
14776;SDS011;7480;43.124;25.686;2023-02-26T17:35:12;9.47;;;4.23;;
14776;SDS011;7480;43.124;25.686;2023-02-26T17:37:39;10.10;;;4.00;;
14776;SDS011;7480;43.124;25.686;2023-02-26T17:42:54;12.36;;;4.75;;
14776;SDS011;7480;43.124;25.686;2023-02-26T17:45:22;11.70;;;4.40;;
14776;SDS011;7480;43.124;25.686;2023-02-26T17:47:49;10.10;;;3.80;;
14776;SDS011;7480;43.124;25.686;2023-02-26T17:53:04;11.37;;;3.93;;
14776;SDS011;7480;43.124;25.686;2023-02-26T17:55:31;12.97;;;4.17;;
14776;SDS011;7480;43.124;25.686;2023-02-26T17:57:58;13.80;;;4.70;;
14776;SDS011;7480;43.124;25.686;2023-02-26T18:00:25;11.07;;;4.10;;
14776;SDS011;7480;43.124;25.686;2023-02-26T18:02:52;8.10;;;3.53;;
14776;SDS011;7480;43.124;25.686;2023-02-26T18:05:18;15.50;;;5.27;;
14776;SDS011;7480;43.124;25.686;2023-02-26T18:07:45;13.37;;;4.30;;
14776;SDS011;7480;43.124;25.686;2023-02-26T18:10:21;12.17;;;3.80;;
14776;SDS011;7480;43.124;25.686;2023-02-26T18:12:50;8.53;;;3.47;;